createdAt,value
2022-08-22T00:01:57.303Z,96204.31
2022-08-22T00:02:59.074Z,96207.19
2022-08-22T00:03:03.229Z,96169.28
2022-08-22T00:03:09.032Z,96179.25
2022-08-22T00:03:11.472Z,96187.88
2022-08-22T00:03:12.734Z,96216.50
2022-08-22T00:04:35.192Z,96202.63
2022-08-22T00:07:08.782Z,96206.56
2022-08-22T00:09:45.283Z,96206.88
2022-08-22T00:12:32.629Z,96193.28
2022-08-22T00:15:31.701Z,96191.22
2022-08-22T00:18:50.107Z,96194.03
2022-08-22T00:21:23.333Z,96194.72
2022-08-22T00:24:13.910Z,96192.03
2022-08-22T00:26:49.314Z,96186.81
2022-08-22T00:29:24.542Z,96186.19
2022-08-22T00:32:02.044Z,96183.38
2022-08-22T00:34:49.120Z,96185.56
2022-08-22T00:37:21.217Z,96176.22
2022-08-22T00:40:03.263Z,96179.97
2022-08-22T00:43:01.049Z,96184.34
2022-08-22T00:46:04.220Z,96177.72
2022-08-22T00:49:14.945Z,96182.25
2022-08-22T00:52:00.817Z,96178.38
2022-08-22T00:54:35.315Z,96177.44
2022-08-22T00:57:18.653Z,96182.66
2022-08-22T01:00:13.678Z,96174.13
2022-08-22T01:03:08.574Z,96179.09
2022-08-22T01:05:51.544Z,96183.06
2022-08-22T01:08:28.662Z,96183.38
2022-08-22T01:11:11.209Z,96181.72
2022-08-22T01:14:06.545Z,96182.78
2022-08-22T01:17:00.690Z,96180.16
2022-08-22T01:19:55.764Z,96170.00
2022-08-22T01:22:41.861Z,96174.97
2022-08-22T01:25:36.630Z,96169.94
2022-08-22T01:28:12.922Z,96164.59
2022-08-22T01:31:37.916Z,96161.22
2022-08-22T01:34:19.876Z,96168.50
2022-08-22T01:37:17.943Z,96162.84
2022-08-22T01:40:22.230Z,96161.38
2022-08-22T01:43:06.957Z,96163.41
2022-08-22T01:45:57.107Z,96155.88
2022-08-22T01:48:47.704Z,96162.41
2022-08-22T01:51:27.122Z,96155.03
2022-08-22T01:54:10.824Z,96153.38
2022-08-22T01:56:45.950Z,96151.31
2022-08-22T01:59:50.824Z,96153.53
2022-08-22T02:02:42.321Z,96139.88
2022-08-22T02:05:32.044Z,96151.50
2022-08-22T02:08:22.285Z,96153.06
2022-08-22T02:11:09.396Z,96149.94
2022-08-22T02:14:07.245Z,96149.06
2022-08-22T02:16:45.075Z,96148.25
2022-08-22T02:19:15.277Z,96146.84
2022-08-22T02:21:50.606Z,96151.31
2022-08-22T02:24:59.381Z,96152.69
2022-08-22T02:27:52.418Z,96154.28
2022-08-22T02:30:25.850Z,96156.41
2022-08-22T02:33:13.266Z,96147.78
2022-08-22T02:35:55.381Z,96148.53
2022-08-22T02:38:42.997Z,96145.69
2022-08-22T02:41:22.203Z,96152.81
2022-08-22T02:43:54.350Z,96151.56
2022-08-22T02:46:40.826Z,96152.75
2022-08-22T02:49:17.225Z,96145.38
2022-08-22T02:51:54.603Z,96144.97
2022-08-22T02:54:52.621Z,96149.28
2022-08-22T02:57:39.444Z,96146.91
2022-08-22T03:00:30.892Z,96152.63
2022-08-22T03:03:03.408Z,96146.09
2022-08-22T03:05:36.583Z,96142.00
2022-08-22T03:08:14.263Z,96139.19
2022-08-22T03:10:47.181Z,96147.69
2022-08-22T03:13:24.972Z,96140.31
2022-08-22T03:16:04.786Z,96135.19
2022-08-22T03:19:27.789Z,96137.09
2022-08-22T03:22:02.530Z,96131.03
2022-08-22T03:24:48.733Z,96136.44
2022-08-22T03:27:32.931Z,96142.53
2022-08-22T03:30:23.244Z,96135.69
2022-08-22T03:32:50.801Z,96136.75
2022-08-22T03:35:35.135Z,96140.53
2022-08-22T03:38:28.784Z,96124.97
2022-08-22T03:41:20.584Z,96132.97
2022-08-22T03:44:18.500Z,96132.72
2022-08-22T03:47:14.561Z,96123.47
2022-08-22T03:49:41.925Z,96127.19
2022-08-22T03:53:05.724Z,96131.28
2022-08-22T03:55:47.050Z,96131.59
2022-08-22T03:58:31.418Z,96124.97
2022-08-22T04:01:17.221Z,96131.50
2022-08-22T04:04:09.753Z,96133.28
2022-08-22T04:07:00.746Z,96140.06
2022-08-22T04:10:05.482Z,96137.94
2022-08-22T04:13:05.980Z,96134.66
2022-08-22T04:16:04.293Z,96139.50
2022-08-22T04:18:52.710Z,96139.25
2022-08-22T04:21:48.337Z,96142.31
2022-08-22T04:24:43.324Z,96135.38
2022-08-22T04:27:33.123Z,96135.38
2022-08-22T04:30:31.772Z,96142.44
2022-08-22T04:33:14.756Z,96143.03
2022-08-22T04:35:54.200Z,96142.63
2022-08-22T04:38:31.465Z,96141.16
2022-08-22T04:41:07.657Z,96137.44
2022-08-22T04:43:45.354Z,96141.25
2022-08-22T04:46:41.340Z,96135.28
2022-08-22T04:49:21.096Z,96143.59
2022-08-22T04:52:09.685Z,96137.19
2022-08-22T04:55:05.869Z,96136.09
2022-08-22T04:57:46.709Z,96144.06
2022-08-22T05:00:16.304Z,96144.81
2022-08-22T05:02:50.620Z,96141.56
2022-08-22T05:05:23.793Z,96143.78
2022-08-22T05:08:03.434Z,96144.78
2022-08-22T05:10:42.804Z,96139.75
2022-08-22T05:13:22.273Z,96141.91
2022-08-22T05:15:54.568Z,96147.09
2022-08-22T05:18:32.127Z,96146.34
2022-08-22T05:21:04.513Z,96145.09
2022-08-22T05:23:52.439Z,96142.75
2022-08-22T05:26:21.207Z,96143.16
2022-08-22T05:28:53.661Z,96149.09
2022-08-22T05:31:35.264Z,96148.34
2022-08-22T05:34:11.554Z,96156.63
2022-08-22T05:36:45.912Z,96154.97
2022-08-22T05:39:18.125Z,96161.81
2022-08-22T05:41:46.975Z,96153.78
2022-08-22T05:44:23.410Z,96156.81
2022-08-22T05:47:00.892Z,96154.75
2022-08-22T05:49:46.239Z,96154.47
2022-08-22T05:52:35.294Z,96158.53
2022-08-22T05:55:26.145Z,96163.81
2022-08-22T05:58:25.926Z,96167.72
2022-08-22T06:01:08.399Z,96165.97
2022-08-22T06:03:40.626Z,96164.47
2022-08-22T06:06:18.311Z,96160.06
2022-08-22T06:09:12.806Z,96166.72
2022-08-22T06:12:21.863Z,96167.63
2022-08-22T06:14:52.854Z,96166.69
2022-08-22T06:17:32.939Z,96168.22
2022-08-22T06:20:01.064Z,96180.69
2022-08-22T06:22:35.512Z,96179.06
2022-08-22T06:25:18.897Z,96173.06
2022-08-22T06:27:49.553Z,96186.72
2022-08-22T06:30:19.564Z,96181.06
2022-08-22T06:33:00.162Z,96182.03
2022-08-22T06:35:55.394Z,96182.47
2022-08-22T06:38:29.746Z,96182.84
2022-08-22T06:41:00.807Z,96190.75
2022-08-22T06:43:37.191Z,96196.88
2022-08-22T06:46:06.683Z,96201.25
2022-08-22T06:48:36.474Z,96200.72
2022-08-22T06:51:07.426Z,96206.81
2022-08-22T06:53:45.886Z,96203.88
2022-08-22T06:56:25.696Z,96202.22
2022-08-22T06:58:58.960Z,96210.59
2022-08-22T07:01:38.297Z,96213.34
2022-08-22T07:04:09.667Z,96215.50
2022-08-22T07:06:43.884Z,96211.69
2022-08-22T07:09:20.401Z,96214.22
2022-08-22T07:11:49.314Z,96211.00
2022-08-22T07:14:25.176Z,96218.31
2022-08-22T07:17:01.375Z,96215.66
2022-08-22T07:19:33.197Z,96219.13
2022-08-22T07:22:22.055Z,96213.50
2022-08-22T07:24:57.514Z,96215.47
2022-08-22T07:27:48.815Z,96224.59
2022-08-22T07:30:28.239Z,96225.41
2022-08-22T07:33:25.822Z,96222.19
2022-08-22T07:35:59.493Z,96225.28
2022-08-22T07:38:43.075Z,96227.25
2022-08-22T07:41:20.348Z,96224.38
2022-08-22T07:43:52.627Z,96224.69
2022-08-22T07:46:36.054Z,96216.41
2022-08-22T07:49:14.470Z,96224.13
2022-08-22T07:51:56.070Z,96231.81
2022-08-22T07:54:35.642Z,96229.31
2022-08-22T07:57:15.264Z,96225.94
2022-08-22T07:59:55.321Z,96227.19
2022-08-22T08:02:24.929Z,96230.44
2022-08-22T08:04:56.829Z,96237.50
2022-08-22T08:07:27.755Z,96236.84
2022-08-22T08:10:11.131Z,96237.38
2022-08-22T08:12:57.892Z,96237.56
2022-08-22T08:15:33.104Z,96237.38
2022-08-22T08:18:06.534Z,96240.03
2022-08-22T08:20:36.752Z,96231.28
2022-08-22T08:23:10.849Z,96231.81
2022-08-22T08:26:05.870Z,96231.03
2022-08-22T08:28:40.062Z,96236.88
2022-08-22T08:31:16.620Z,96235.78
2022-08-22T08:33:48.430Z,96240.31
2022-08-22T08:36:33.632Z,96241.41
2022-08-22T08:39:00.853Z,96240.72
2022-08-22T08:41:52.693Z,96250.84
2022-08-22T08:44:31.849Z,96246.59
2022-08-22T08:47:30.468Z,96249.38
2022-08-22T08:50:06.585Z,96252.06
2022-08-22T08:52:40.759Z,96256.16
2022-08-22T08:58:30.476Z,96254.00
2022-08-22T09:01:27.685Z,96249.97
2022-08-22T09:04:04.869Z,96250.72
2022-08-22T09:07:06.069Z,96252.88
2022-08-22T09:09:52.806Z,96254.63
2022-08-22T09:13:11.854Z,96257.00
2022-08-22T09:16:22.802Z,96252.09
2022-08-22T09:19:20.570Z,96248.63
2022-08-22T09:21:51.193Z,96257.88
2022-08-22T09:24:48.915Z,96256.19
2022-08-22T09:27:37.385Z,96249.50
2022-08-22T09:30:11.678Z,96249.97
2022-08-22T09:33:14.555Z,96252.47
2022-08-22T09:35:59.454Z,96237.97
2022-08-22T09:39:10.970Z,96246.16
2022-08-22T09:40:15.989Z,96262.69
2022-08-22T09:42:07.943Z,96240.28
2022-08-22T09:44:59.445Z,96233.28
2022-08-22T09:47:39.305Z,96235.28
2022-08-22T09:51:01.658Z,96234.94
2022-08-22T09:54:08.903Z,96224.63
2022-08-22T09:56:55.968Z,96222.81
2022-08-22T09:59:37.464Z,96223.63
2022-08-22T10:02:29.669Z,96224.00
2022-08-22T10:05:40.310Z,96221.59
2022-08-22T10:08:33.279Z,96225.72
2022-08-22T10:11:12.058Z,96214.91
2022-08-22T10:13:47.811Z,96232.50
2022-08-22T10:16:27.652Z,96215.72
2022-08-22T10:19:23.143Z,96223.19
2022-08-22T10:22:22.501Z,96220.53
2022-08-22T10:25:22.626Z,96215.25
2022-08-22T10:28:12.313Z,96210.09
2022-08-22T10:31:18.348Z,96210.19
2022-08-22T10:34:03.504Z,96212.84
2022-08-22T10:36:46.146Z,96212.19
2022-08-22T10:39:24.659Z,96211.22
2022-08-22T10:42:18.560Z,96205.53
2022-08-22T10:45:23.555Z,96198.53
2022-08-22T10:48:08.936Z,96192.97
2022-08-22T10:50:48.245Z,96195.25
2022-08-22T10:53:44.158Z,96188.72
2022-08-22T10:56:23.946Z,96188.63
2022-08-22T10:59:22.917Z,96189.97
2022-08-22T11:02:15.026Z,96184.38
2022-08-22T11:05:04.951Z,96191.97
2022-08-22T11:08:06.573Z,96188.03
2022-08-22T11:10:49.267Z,96186.19
2022-08-22T11:13:46.837Z,96190.91
2022-08-22T11:16:55.314Z,96183.06
2022-08-22T11:19:44.781Z,96190.03
2022-08-22T11:22:30.755Z,96191.34
2022-08-22T11:25:38.555Z,96186.84
2022-08-22T11:28:25.216Z,96184.56
2022-08-22T11:31:10.204Z,96181.59
2022-08-22T11:33:49.710Z,96181.78
2022-08-22T11:36:39.803Z,96181.28
2022-08-22T11:39:18.259Z,96183.19
2022-08-22T11:41:57.707Z,96182.72
2022-08-22T11:44:50.514Z,96177.66
2022-08-22T11:47:26.689Z,96172.16
2022-08-22T11:50:35.215Z,96169.56
2022-08-22T11:53:04.613Z,96162.81
2022-08-22T11:55:59.291Z,96170.84
2022-08-22T11:59:00.950Z,96171.38
2022-08-22T12:01:53.076Z,96157.53
2022-08-22T12:04:42.575Z,96157.59
2022-08-22T12:07:18.069Z,96162.59
2022-08-22T12:09:51.001Z,96155.97
2022-08-22T12:12:52.688Z,96153.91
2022-08-22T12:15:40.566Z,96153.69
2022-08-22T12:18:27.584Z,96154.56
2022-08-22T12:20:57.666Z,96152.69
2022-08-22T12:23:50.561Z,96154.88
2022-08-22T12:26:28.629Z,96153.25
2022-08-22T12:29:23.325Z,96154.00
2022-08-22T12:32:15.640Z,96150.25
2022-08-22T12:34:55.733Z,96141.66
2022-08-22T12:38:03.622Z,96134.63
2022-08-22T12:40:45.340Z,96127.59
2022-08-22T12:43:42.752Z,96125.66
2022-08-22T12:46:15.065Z,96121.41
2022-08-22T12:49:17.437Z,96130.38
2022-08-22T12:52:08.839Z,96127.84
2022-08-22T12:55:13.672Z,96119.81
2022-08-22T12:58:08.377Z,96121.19
2022-08-22T13:00:35.856Z,96111.63
2022-08-22T13:03:28.379Z,96108.56
2022-08-22T13:06:00.355Z,96112.44
2022-08-22T13:08:38.421Z,96117.03
2022-08-22T13:11:23.364Z,96114.56
2022-08-22T13:14:01.393Z,96114.28
2022-08-22T13:16:39.156Z,96111.50
2022-08-22T13:19:29.433Z,96114.91
2022-08-22T13:22:02.582Z,96111.16
2022-08-22T13:24:52.369Z,96103.84
2022-08-22T13:27:34.450Z,96093.72
2022-08-22T13:30:13.584Z,96109.84
2022-08-22T13:32:44.668Z,96096.31
2022-08-22T13:35:32.885Z,96105.94
2022-08-22T13:38:12.326Z,96096.44
2022-08-22T13:40:46.260Z,96093.81
2022-08-22T13:43:20.945Z,96100.13
2022-08-22T13:45:58.278Z,96092.84
2022-08-22T13:48:46.758Z,96105.59
2022-08-22T13:51:21.065Z,96095.13
2022-08-22T13:54:02.213Z,96096.78
2022-08-22T13:56:52.624Z,96091.28
2022-08-22T13:59:50.338Z,96092.06
2022-08-22T14:02:43.475Z,96091.41
2022-08-22T14:05:36.745Z,96090.75
2022-08-22T14:08:21.725Z,96085.31
2022-08-22T14:11:11.372Z,96086.50
2022-08-22T14:13:45.963Z,96082.84
2022-08-22T14:16:21.015Z,96095.53
2022-08-22T14:18:55.285Z,96087.84
2022-08-22T14:21:51.392Z,96087.94
2022-08-22T14:24:25.878Z,96085.25
2022-08-22T14:27:14.544Z,96081.44
2022-08-22T14:29:50.881Z,96088.06
2022-08-22T14:32:22.796Z,96081.41
2022-08-22T14:35:05.676Z,96071.22
2022-08-22T14:37:42.896Z,96066.97
2022-08-22T14:40:34.359Z,96059.47
2022-08-22T14:43:09.622Z,96062.84
2022-08-22T14:45:45.667Z,96060.16
2022-08-22T14:48:40.668Z,96059.56
2022-08-22T14:51:22.034Z,96056.31
2022-08-22T14:53:50.865Z,96061.00
2022-08-22T14:56:27.974Z,96057.44
2022-08-22T14:59:01.350Z,96058.00
2022-08-22T15:01:32.730Z,96057.34
2022-08-22T15:04:11.232Z,96059.09
2022-08-22T15:07:09.171Z,96058.69
2022-08-22T15:09:50.986Z,96053.28
2022-08-22T15:12:34.380Z,96057.03
2022-08-22T15:15:13.339Z,96044.13
2022-08-22T15:17:50.890Z,96051.38
2022-08-22T15:20:28.662Z,96053.81
2022-08-22T15:23:03.003Z,96047.34
2022-08-22T15:25:43.032Z,96051.63
2022-08-22T15:28:20.307Z,96051.38
2022-08-22T15:31:03.508Z,96054.88
2022-08-22T15:33:43.236Z,96048.00
2022-08-22T15:36:27.446Z,96047.91
2022-08-22T15:39:17.245Z,96047.75
2022-08-22T15:41:47.937Z,96043.06
2022-08-22T15:44:30.830Z,96046.63
2022-08-22T15:47:34.842Z,96040.94
2022-08-22T15:50:15.460Z,96037.63
2022-08-22T15:53:14.857Z,96040.13
2022-08-22T15:56:05.096Z,96035.16
2022-08-22T15:58:37.621Z,96038.28
2022-08-22T16:01:12.592Z,96032.63
2022-08-22T16:03:58.486Z,96038.41
2022-08-22T16:06:48.248Z,96032.09
2022-08-22T16:09:46.581Z,96037.06
2022-08-22T16:12:51.022Z,96039.16
2022-08-22T16:15:54.395Z,96042.59
2022-08-22T16:18:39.473Z,96043.22
2022-08-22T16:21:18.255Z,96037.94
2022-08-22T16:23:51.635Z,96037.06
2022-08-22T16:26:43.244Z,96033.16
2022-08-22T16:29:14.739Z,96037.44
2022-08-22T16:31:45.102Z,96035.53
2022-08-22T16:34:18.677Z,96037.44
2022-08-22T16:36:55.535Z,96038.00
2022-08-22T16:39:22.767Z,96038.41
2022-08-22T16:42:22.713Z,96038.31
2022-08-22T16:44:54.873Z,96038.97
2022-08-22T16:47:42.175Z,96029.78
2022-08-22T16:50:27.292Z,96028.47
2022-08-22T16:53:31.506Z,96031.84
2022-08-22T16:56:25.862Z,96029.13
2022-08-22T16:59:23.101Z,96031.59
2022-08-22T17:02:07.965Z,96041.50
2022-08-22T17:04:44.430Z,96028.81
2022-08-22T17:07:32.023Z,96034.72
2022-08-22T17:10:17.798Z,96028.53
2022-08-22T17:13:10.452Z,96024.06
2022-08-22T17:15:58.001Z,96025.34
2022-08-22T17:19:05.245Z,96025.31
2022-08-22T17:21:51.936Z,96039.44
2022-08-22T17:24:36.772Z,96035.66
2022-08-22T17:27:16.059Z,96039.38
2022-08-22T17:29:45.950Z,96041.63
2022-08-22T17:32:24.550Z,96043.84
2022-08-22T17:35:20.828Z,96041.94
2022-08-22T17:38:00.600Z,96040.03
2022-08-22T17:40:37.027Z,96039.28
2022-08-22T17:43:10.125Z,96044.09
2022-08-22T17:45:45.994Z,96043.56
2022-08-22T17:48:13.386Z,96045.97
2022-08-22T17:50:48.612Z,96034.53
2022-08-22T17:53:24.615Z,96049.00
2022-08-22T17:56:19.641Z,96042.63
2022-08-22T17:59:07.053Z,96046.28
2022-08-22T18:01:48.551Z,96042.72
2022-08-22T18:04:39.339Z,96044.53
2022-08-22T18:07:15.674Z,96052.81
2022-08-22T18:09:51.785Z,96043.84
2022-08-22T18:12:48.421Z,96043.53
2022-08-22T18:15:29.958Z,96035.41
2022-08-22T18:18:05.271Z,96046.47
2022-08-22T18:20:46.317Z,96038.44
2022-08-22T18:23:36.089Z,96045.06
2022-08-22T18:26:31.994Z,96048.88
2022-08-22T18:29:06.607Z,96054.81
2022-08-22T18:32:07.483Z,96052.47
2022-08-22T18:34:52.293Z,96046.22
2022-08-22T18:38:00.108Z,96045.78
2022-08-22T18:40:30.915Z,96045.53
2022-08-22T18:43:13.594Z,96041.81
2022-08-22T18:45:46.729Z,96042.25
2022-08-22T18:48:59.383Z,96054.69
2022-08-22T18:51:38.146Z,96046.75
2022-08-22T18:54:07.206Z,96049.63
2022-08-22T18:56:50.976Z,96050.56
2022-08-22T18:59:26.685Z,96048.63
2022-08-22T19:02:22.768Z,96052.59
2022-08-22T19:05:13.045Z,96056.66
2022-08-22T19:08:11.263Z,96058.69
2022-08-22T19:10:47.284Z,96057.31
2022-08-22T19:13:36.226Z,96071.97
2022-08-22T19:16:21.175Z,96064.50
2022-08-22T19:18:51.686Z,96069.47
2022-08-22T19:21:48.477Z,96073.84
2022-08-22T19:24:28.088Z,96068.75
2022-08-22T19:27:07.658Z,96079.09
2022-08-22T19:29:37.654Z,96076.34
2022-08-22T19:32:12.968Z,96080.25
2022-08-22T19:34:47.716Z,96073.63
2022-08-22T19:37:33.341Z,96072.59
2022-08-22T19:40:05.045Z,96075.75
2022-08-22T19:42:36.434Z,96077.47
2022-08-22T19:45:10.643Z,96075.19
2022-08-22T19:47:42.644Z,96073.97
2022-08-22T19:50:16.762Z,96081.59
2022-08-22T19:53:00.009Z,96075.09
2022-08-22T19:55:39.202Z,96076.47
2022-08-22T19:58:32.535Z,96071.91
2022-08-22T20:01:27.210Z,96080.47
2022-08-22T20:04:15.355Z,96081.59
2022-08-22T20:07:14.376Z,96078.72
2022-08-22T20:10:19.816Z,96077.78
2022-08-22T20:13:18.433Z,96082.03
2022-08-22T20:16:08.014Z,96077.94
2022-08-22T20:19:06.390Z,96078.00
2022-08-22T20:21:48.557Z,96079.44
2022-08-22T20:24:29.504Z,96080.47
2022-08-22T20:27:15.752Z,96076.03
2022-08-22T20:29:52.027Z,96076.47
2022-08-22T20:32:22.256Z,96081.16
2022-08-22T20:34:55.853Z,96076.50
2022-08-22T20:37:45.291Z,96080.81
2022-08-22T20:40:55.306Z,96078.28
2022-08-22T20:43:37.881Z,96080.28
2022-08-22T20:46:24.105Z,96083.00
2022-08-22T20:48:54.901Z,96082.97
2022-08-22T20:51:25.722Z,96082.16
2022-08-22T20:54:16.833Z,96075.22
2022-08-22T20:56:56.281Z,96076.41
2022-08-22T20:59:29.916Z,96080.72
2022-08-22T21:02:03.567Z,96073.06
2022-08-22T21:04:45.928Z,96073.34
2022-08-22T21:07:21.293Z,96071.34
2022-08-22T21:10:15.899Z,96080.19
2022-08-22T21:13:02.166Z,96071.59
2022-08-22T21:15:32.141Z,96081.31
2022-08-22T21:18:00.515Z,96072.09
2022-08-22T21:20:33.330Z,96069.72
2022-08-22T21:23:07.052Z,96075.00
2022-08-22T21:25:48.983Z,96069.66
2022-08-22T21:28:57.237Z,96075.31
2022-08-22T21:31:28.966Z,96067.28
2022-08-22T21:33:57.492Z,96069.63
2022-08-22T21:36:28.761Z,96074.47
2022-08-22T21:39:06.878Z,96074.22
2022-08-22T21:41:52.849Z,96073.97
2022-08-22T21:44:32.276Z,96081.47
2022-08-22T21:47:31.491Z,96084.22
2022-08-22T21:50:28.703Z,96080.88
2022-08-22T21:52:55.946Z,96081.63
2022-08-22T21:55:30.783Z,96084.34
2022-08-22T21:58:10.255Z,96085.25
2022-08-22T22:01:00.420Z,96085.28
2022-08-22T22:03:30.735Z,96082.66
2022-08-22T22:06:03.393Z,96088.09
2022-08-22T22:08:32.034Z,96086.06
2022-08-22T22:11:08.614Z,96088.56
2022-08-22T22:13:37.743Z,96086.47
2022-08-22T22:16:07.235Z,96093.41
2022-08-22T22:18:37.637Z,96092.66
2022-08-22T22:21:06.019Z,96087.56
2022-08-22T22:23:33.910Z,96094.59
2022-08-22T22:26:05.300Z,96101.25
2022-08-22T22:28:42.067Z,96098.41
2022-08-22T22:31:09.664Z,96099.84
2022-08-22T22:33:39.365Z,96098.72
2022-08-22T22:36:28.969Z,96100.47
2022-08-22T22:38:56.459Z,96104.44
2022-08-22T22:41:25.894Z,96093.13
2022-08-22T22:43:54.483Z,96107.66
2022-08-22T22:46:23.672Z,96109.50
2022-08-22T22:48:51.176Z,96108.09
2022-08-22T22:51:18.441Z,96108.41
2022-08-22T22:53:48.885Z,96106.94
2022-08-22T22:56:21.613Z,96112.47
2022-08-22T22:58:58.964Z,96113.94
2022-08-22T23:01:27.501Z,96109.34
2022-08-22T23:03:57.742Z,96108.34
2022-08-22T23:06:28.226Z,96110.97
2022-08-22T23:08:56.171Z,96112.09
2022-08-22T23:11:29.477Z,96114.63
2022-08-22T23:13:57.409Z,96117.09
2022-08-22T23:16:27.504Z,96106.63
2022-08-22T23:18:55.600Z,96115.25
2022-08-22T23:21:26.716Z,96113.31
2022-08-22T23:23:56.340Z,96115.03
2022-08-22T23:26:24.947Z,96119.59
2022-08-22T23:28:52.299Z,96123.59
2022-08-22T23:31:42.354Z,96129.69
2022-08-22T23:34:13.373Z,96135.09
2022-08-22T23:36:43.863Z,96134.28
2022-08-22T23:39:12.648Z,96127.88
2022-08-22T23:41:40.999Z,96127.22
2022-08-22T23:44:13.446Z,96132.34
2022-08-22T23:46:44.243Z,96128.41
2022-08-22T23:49:12.179Z,96126.59
2022-08-22T23:51:39.905Z,96129.59
2022-08-22T23:54:07.835Z,96124.34
2022-08-22T23:56:44.589Z,96130.31
2022-08-22T23:59:19.409Z,96123.91
